sensor_id;sensor_type;location;lat;lon;timestamp;P1;durP1;ratioP1;P2;durP2;ratioP2
8964;SDS011;4517;49.020;12.066;2023-01-09T00:02:08;30.93;;;15.40;;
8964;SDS011;4517;49.020;12.066;2023-01-09T00:04:34;25.73;;;15.50;;
8964;SDS011;4517;49.020;12.066;2023-01-09T00:06:59;27.53;;;16.63;;
8964;SDS011;4517;49.020;12.066;2023-01-09T00:09:25;27.23;;;15.20;;
8964;SDS011;4517;49.020;12.066;2023-01-09T00:11:51;26.70;;;15.63;;
8964;SDS011;4517;49.020;12.066;2023-01-09T00:14:17;27.33;;;16.10;;
8964;SDS011;4517;49.020;12.066;2023-01-09T00:16:43;26.23;;;14.70;;
8964;SDS011;4517;49.020;12.066;2023-01-09T00:19:09;23.73;;;15.33;;
8964;SDS011;4517;49.020;12.066;2023-01-09T00:21:35;29.63;;;16.70;;
8964;SDS011;4517;49.020;12.066;2023-01-09T00:24:01;29.83;;;16.30;;
8964;SDS011;4517;49.020;12.066;2023-01-09T00:26:26;28.90;;;14.40;;
8964;SDS011;4517;49.020;12.066;2023-01-09T00:28:52;26.03;;;14.50;;
8964;SDS011;4517;49.020;12.066;2023-01-09T00:31:18;26.07;;;15.70;;
8964;SDS011;4517;49.020;12.066;2023-01-09T00:33:54;21.10;;;13.83;;
8964;SDS011;4517;49.020;12.066;2023-01-09T00:36:24;22.90;;;14.77;;
8964;SDS011;4517;49.020;12.066;2023-01-09T00:38:50;28.50;;;14.90;;
8964;SDS011;4517;49.020;12.066;2023-01-09T00:41:18;25.57;;;14.00;;
8964;SDS011;4517;49.020;12.066;2023-01-09T00:43:48;22.33;;;13.47;;
8964;SDS011;4517;49.020;12.066;2023-01-09T00:46:17;20.07;;;13.83;;
8964;SDS011;4517;49.020;12.066;2023-01-09T00:48:45;21.80;;;14.30;;
8964;SDS011;4517;49.020;12.066;2023-01-09T00:51:13;20.47;;;12.57;;
8964;SDS011;4517;49.020;12.066;2023-01-09T00:53:40;24.63;;;13.90;;
8964;SDS011;4517;49.020;12.066;2023-01-09T00:56:08;19.27;;;13.73;;
8964;SDS011;4517;49.020;12.066;2023-01-09T00:58:38;21.80;;;13.00;;
8964;SDS011;4517;49.020;12.066;2023-01-09T01:01:05;26.00;;;15.07;;
8964;SDS011;4517;49.020;12.066;2023-01-09T01:03:31;22.30;;;13.87;;
8964;SDS011;4517;49.020;12.066;2023-01-09T01:05:56;20.87;;;12.80;;
8964;SDS011;4517;49.020;12.066;2023-01-09T01:08:40;22.70;;;13.90;;
8964;SDS011;4517;49.020;12.066;2023-01-09T01:11:07;22.30;;;12.90;;
8964;SDS011;4517;49.020;12.066;2023-01-09T01:13:34;24.90;;;13.70;;
8964;SDS011;4517;49.020;12.066;2023-01-09T01:16:02;23.67;;;14.33;;
8964;SDS011;4517;49.020;12.066;2023-01-09T01:18:29;21.80;;;14.70;;
8964;SDS011;4517;49.020;12.066;2023-01-09T01:20:55;26.90;;;13.97;;
8964;SDS011;4517;49.020;12.066;2023-01-09T01:23:20;21.80;;;14.80;;
8964;SDS011;4517;49.020;12.066;2023-01-09T01:25:46;23.23;;;16.70;;
8964;SDS011;4517;49.020;12.066;2023-01-09T01:28:11;23.60;;;16.10;;
8964;SDS011;4517;49.020;12.066;2023-01-09T01:30:37;23.43;;;17.60;;
8964;SDS011;4517;49.020;12.066;2023-01-09T01:33:04;26.63;;;18.33;;
8964;SDS011;4517;49.020;12.066;2023-01-09T01:35:30;24.17;;;17.63;;
8964;SDS011;4517;49.020;12.066;2023-01-09T01:37:56;24.23;;;16.33;;
8964;SDS011;4517;49.020;12.066;2023-01-09T01:40:21;26.97;;;17.53;;
8964;SDS011;4517;49.020;12.066;2023-01-09T01:42:47;26.20;;;17.50;;
8964;SDS011;4517;49.020;12.066;2023-01-09T01:50:30;25.83;;;19.30;;
8964;SDS011;4517;49.020;12.066;2023-01-09T01:53:19;29.53;;;19.07;;
8964;SDS011;4517;49.020;12.066;2023-01-09T01:55:52;28.83;;;18.57;;
8964;SDS011;4517;49.020;12.066;2023-01-09T01:58:24;26.30;;;18.70;;
8964;SDS011;4517;49.020;12.066;2023-01-09T02:00:51;27.10;;;18.30;;
8964;SDS011;4517;49.020;12.066;2023-01-09T02:03:17;25.93;;;18.93;;
8964;SDS011;4517;49.020;12.066;2023-01-09T02:05:45;28.90;;;20.00;;
8964;SDS011;4517;49.020;12.066;2023-01-09T02:08:11;26.10;;;18.70;;
8964;SDS011;4517;49.020;12.066;2023-01-09T02:10:37;30.37;;;21.20;;
8964;SDS011;4517;49.020;12.066;2023-01-09T02:13:03;30.97;;;20.53;;
8964;SDS011;4517;49.020;12.066;2023-01-09T02:15:34;29.87;;;20.70;;
8964;SDS011;4517;49.020;12.066;2023-01-09T02:18:16;34.80;;;22.60;;
8964;SDS011;4517;49.020;12.066;2023-01-09T02:20:59;33.73;;;20.30;;
8964;SDS011;4517;49.020;12.066;2023-01-09T02:23:40;32.10;;;19.77;;
8964;SDS011;4517;49.020;12.066;2023-01-09T02:31:31;36.90;;;20.40;;
8964;SDS011;4517;49.020;12.066;2023-01-09T02:34:29;34.77;;;19.57;;
8964;SDS011;4517;49.020;12.066;2023-01-09T02:37:09;29.13;;;20.37;;
8964;SDS011;4517;49.020;12.066;2023-01-09T02:39:50;28.27;;;19.27;;
8964;SDS011;4517;49.020;12.066;2023-01-09T02:42:18;37.83;;;19.70;;
8964;SDS011;4517;49.020;12.066;2023-01-09T02:44:46;28.37;;;20.57;;
8964;SDS011;4517;49.020;12.066;2023-01-09T02:49:45;32.83;;;19.33;;
8964;SDS011;4517;49.020;12.066;2023-01-09T02:54:59;34.40;;;19.23;;
8964;SDS011;4517;49.020;12.066;2023-01-09T03:00:36;33.40;;;19.67;;
8964;SDS011;4517;49.020;12.066;2023-01-09T03:08:56;31.67;;;20.40;;
8964;SDS011;4517;49.020;12.066;2023-01-09T03:11:27;35.93;;;20.20;;
8964;SDS011;4517;49.020;12.066;2023-01-09T03:13:58;38.73;;;21.50;;
8964;SDS011;4517;49.020;12.066;2023-01-09T03:16:34;36.00;;;20.20;;
8964;SDS011;4517;49.020;12.066;2023-01-09T03:19:03;33.40;;;20.30;;
8964;SDS011;4517;49.020;12.066;2023-01-09T03:21:31;37.87;;;21.10;;
8964;SDS011;4517;49.020;12.066;2023-01-09T03:23:59;33.77;;;19.83;;
8964;SDS011;4517;49.020;12.066;2023-01-09T03:26:26;36.70;;;22.43;;
8964;SDS011;4517;49.020;12.066;2023-01-09T03:28:56;40.20;;;23.33;;
8964;SDS011;4517;49.020;12.066;2023-01-09T03:31:22;40.20;;;21.43;;
8964;SDS011;4517;49.020;12.066;2023-01-09T03:33:48;30.10;;;20.20;;
8964;SDS011;4517;49.020;12.066;2023-01-09T03:36:14;41.40;;;21.60;;
8964;SDS011;4517;49.020;12.066;2023-01-09T03:38:41;31.67;;;20.43;;
8964;SDS011;4517;49.020;12.066;2023-01-09T03:41:06;33.63;;;20.70;;
8964;SDS011;4517;49.020;12.066;2023-01-09T03:43:32;47.17;;;21.80;;
8964;SDS011;4517;49.020;12.066;2023-01-09T03:45:58;36.53;;;21.17;;
8964;SDS011;4517;49.020;12.066;2023-01-09T03:48:23;37.23;;;19.80;;
8964;SDS011;4517;49.020;12.066;2023-01-09T03:50:50;36.37;;;21.30;;
8964;SDS011;4517;49.020;12.066;2023-01-09T03:53:16;32.57;;;19.03;;
8964;SDS011;4517;49.020;12.066;2023-01-09T03:55:47;36.73;;;21.30;;
8964;SDS011;4517;49.020;12.066;2023-01-09T03:58:14;37.53;;;20.47;;
8964;SDS011;4517;49.020;12.066;2023-01-09T04:00:41;38.30;;;19.20;;
8964;SDS011;4517;49.020;12.066;2023-01-09T04:03:07;31.90;;;19.20;;
8964;SDS011;4517;49.020;12.066;2023-01-09T04:05:33;33.40;;;20.00;;
8964;SDS011;4517;49.020;12.066;2023-01-09T04:07:59;29.27;;;18.80;;
8964;SDS011;4517;49.020;12.066;2023-01-09T04:10:25;34.73;;;19.87;;
8964;SDS011;4517;49.020;12.066;2023-01-09T04:12:51;35.20;;;19.03;;
8964;SDS011;4517;49.020;12.066;2023-01-09T04:15:17;38.77;;;19.47;;
8964;SDS011;4517;49.020;12.066;2023-01-09T04:17:43;32.87;;;19.37;;
8964;SDS011;4517;49.020;12.066;2023-01-09T04:20:09;35.00;;;20.47;;
8964;SDS011;4517;49.020;12.066;2023-01-09T04:22:35;37.20;;;20.90;;
8964;SDS011;4517;49.020;12.066;2023-01-09T04:25:00;39.37;;;20.20;;
8964;SDS011;4517;49.020;12.066;2023-01-09T04:27:27;33.37;;;17.80;;
8964;SDS011;4517;49.020;12.066;2023-01-09T04:29:53;34.03;;;18.60;;
8964;SDS011;4517;49.020;12.066;2023-01-09T04:32:19;37.00;;;19.27;;
8964;SDS011;4517;49.020;12.066;2023-01-09T04:34:54;38.23;;;19.30;;
8964;SDS011;4517;49.020;12.066;2023-01-09T04:37:20;40.03;;;18.37;;
8964;SDS011;4517;49.020;12.066;2023-01-09T04:39:46;32.97;;;17.70;;
8964;SDS011;4517;49.020;12.066;2023-01-09T04:42:13;33.63;;;19.53;;
8964;SDS011;4517;49.020;12.066;2023-01-09T04:44:38;35.37;;;20.27;;
8964;SDS011;4517;49.020;12.066;2023-01-09T04:47:04;35.87;;;20.90;;
8964;SDS011;4517;49.020;12.066;2023-01-09T04:49:30;48.03;;;20.03;;
8964;SDS011;4517;49.020;12.066;2023-01-09T04:51:56;32.70;;;18.87;;
8964;SDS011;4517;49.020;12.066;2023-01-09T04:54:21;37.83;;;19.30;;
8964;SDS011;4517;49.020;12.066;2023-01-09T04:56:47;42.30;;;20.53;;
8964;SDS011;4517;49.020;12.066;2023-01-09T04:59:13;34.67;;;18.97;;
8964;SDS011;4517;49.020;12.066;2023-01-09T05:01:38;38.17;;;21.13;;
8964;SDS011;4517;49.020;12.066;2023-01-09T05:04:05;35.30;;;18.03;;
8964;SDS011;4517;49.020;12.066;2023-01-09T05:06:31;33.03;;;18.60;;
8964;SDS011;4517;49.020;12.066;2023-01-09T05:08:58;40.00;;;20.80;;
8964;SDS011;4517;49.020;12.066;2023-01-09T05:11:24;34.70;;;19.20;;
8964;SDS011;4517;49.020;12.066;2023-01-09T05:13:50;37.63;;;19.50;;
8964;SDS011;4517;49.020;12.066;2023-01-09T05:16:16;35.57;;;18.33;;
8964;SDS011;4517;49.020;12.066;2023-01-09T05:18:42;33.07;;;20.10;;
8964;SDS011;4517;49.020;12.066;2023-01-09T05:21:08;34.55;;;17.80;;
8964;SDS011;4517;49.020;12.066;2023-01-09T05:23:34;34.87;;;18.90;;
8964;SDS011;4517;49.020;12.066;2023-01-09T05:25:59;36.93;;;18.33;;
8964;SDS011;4517;49.020;12.066;2023-01-09T05:28:25;27.17;;;16.60;;
8964;SDS011;4517;49.020;12.066;2023-01-09T05:30:50;33.00;;;18.40;;
8964;SDS011;4517;49.020;12.066;2023-01-09T05:33:16;33.93;;;18.50;;
8964;SDS011;4517;49.020;12.066;2023-01-09T05:35:41;36.80;;;19.30;;
8964;SDS011;4517;49.020;12.066;2023-01-09T05:38:07;38.30;;;18.10;;
8964;SDS011;4517;49.020;12.066;2023-01-09T05:40:32;34.10;;;19.10;;
8964;SDS011;4517;49.020;12.066;2023-01-09T05:42:58;35.57;;;18.30;;
8964;SDS011;4517;49.020;12.066;2023-01-09T05:45:24;36.90;;;19.80;;
8964;SDS011;4517;49.020;12.066;2023-01-09T05:47:51;32.57;;;19.07;;
8964;SDS011;4517;49.020;12.066;2023-01-09T05:50:16;33.07;;;18.10;;
8964;SDS011;4517;49.020;12.066;2023-01-09T05:52:42;38.17;;;17.97;;
8964;SDS011;4517;49.020;12.066;2023-01-09T05:55:07;34.37;;;19.40;;
8964;SDS011;4517;49.020;12.066;2023-01-09T05:57:33;32.00;;;18.47;;
8964;SDS011;4517;49.020;12.066;2023-01-09T05:59:59;34.60;;;19.80;;
8964;SDS011;4517;49.020;12.066;2023-01-09T06:02:24;31.27;;;18.07;;
8964;SDS011;4517;49.020;12.066;2023-01-09T06:04:50;32.80;;;18.93;;
8964;SDS011;4517;49.020;12.066;2023-01-09T06:07:15;31.40;;;19.30;;
8964;SDS011;4517;49.020;12.066;2023-01-09T06:09:41;32.30;;;19.37;;
8964;SDS011;4517;49.020;12.066;2023-01-09T06:12:06;33.60;;;18.37;;
8964;SDS011;4517;49.020;12.066;2023-01-09T06:14:32;35.80;;;19.47;;
8964;SDS011;4517;49.020;12.066;2023-01-09T06:16:58;37.10;;;19.33;;
8964;SDS011;4517;49.020;12.066;2023-01-09T06:19:23;31.73;;;17.90;;
8964;SDS011;4517;49.020;12.066;2023-01-09T06:21:49;32.53;;;17.73;;
8964;SDS011;4517;49.020;12.066;2023-01-09T06:24:15;31.30;;;18.43;;
8964;SDS011;4517;49.020;12.066;2023-01-09T06:26:40;33.97;;;18.40;;
8964;SDS011;4517;49.020;12.066;2023-01-09T06:29:06;31.80;;;17.97;;
8964;SDS011;4517;49.020;12.066;2023-01-09T06:31:32;30.57;;;17.13;;
8964;SDS011;4517;49.020;12.066;2023-01-09T06:33:57;35.77;;;19.77;;
8964;SDS011;4517;49.020;12.066;2023-01-09T06:36:24;28.47;;;16.93;;
8964;SDS011;4517;49.020;12.066;2023-01-09T06:38:50;40.50;;;19.93;;
8964;SDS011;4517;49.020;12.066;2023-01-09T06:41:16;32.80;;;19.57;;
8964;SDS011;4517;49.020;12.066;2023-01-09T06:43:41;33.70;;;19.97;;
8964;SDS011;4517;49.020;12.066;2023-01-09T06:46:07;33.43;;;20.00;;
8964;SDS011;4517;49.020;12.066;2023-01-09T06:48:33;31.57;;;19.23;;
8964;SDS011;4517;49.020;12.066;2023-01-09T06:50:59;32.63;;;17.87;;
8964;SDS011;4517;49.020;12.066;2023-01-09T06:53:25;29.67;;;19.10;;
8964;SDS011;4517;49.020;12.066;2023-01-09T06:55:51;31.77;;;19.27;;
8964;SDS011;4517;49.020;12.066;2023-01-09T06:58:17;30.37;;;18.03;;
8964;SDS011;4517;49.020;12.066;2023-01-09T07:00:43;32.90;;;20.67;;
8964;SDS011;4517;49.020;12.066;2023-01-09T07:03:08;41.27;;;19.87;;
8964;SDS011;4517;49.020;12.066;2023-01-09T07:05:40;34.73;;;19.37;;
8964;SDS011;4517;49.020;12.066;2023-01-09T07:08:06;29.27;;;18.10;;
8964;SDS011;4517;49.020;12.066;2023-01-09T07:10:32;35.03;;;19.30;;
8964;SDS011;4517;49.020;12.066;2023-01-09T07:12:58;31.40;;;19.83;;
8964;SDS011;4517;49.020;12.066;2023-01-09T07:15:23;37.40;;;18.87;;
8964;SDS011;4517;49.020;12.066;2023-01-09T07:17:52;33.00;;;18.87;;
8964;SDS011;4517;49.020;12.066;2023-01-09T07:20:18;28.60;;;17.40;;
8964;SDS011;4517;49.020;12.066;2023-01-09T07:22:44;31.93;;;17.90;;
8964;SDS011;4517;49.020;12.066;2023-01-09T07:25:11;30.27;;;18.70;;
8964;SDS011;4517;49.020;12.066;2023-01-09T07:27:37;32.20;;;19.10;;
8964;SDS011;4517;49.020;12.066;2023-01-09T07:30:03;34.03;;;19.13;;
8964;SDS011;4517;49.020;12.066;2023-01-09T07:32:29;28.30;;;17.73;;
8964;SDS011;4517;49.020;12.066;2023-01-09T07:34:55;28.57;;;18.10;;
8964;SDS011;4517;49.020;12.066;2023-01-09T07:37:21;24.47;;;17.50;;
8964;SDS011;4517;49.020;12.066;2023-01-09T07:39:47;23.40;;;16.13;;
8964;SDS011;4517;49.020;12.066;2023-01-09T07:42:12;23.60;;;15.63;;
8964;SDS011;4517;49.020;12.066;2023-01-09T07:44:38;20.70;;;15.47;;
8964;SDS011;4517;49.020;12.066;2023-01-09T07:47:04;19.83;;;15.07;;
8964;SDS011;4517;49.020;12.066;2023-01-09T07:49:30;17.60;;;13.53;;
8964;SDS011;4517;49.020;12.066;2023-01-09T07:51:55;22.17;;;13.97;;
8964;SDS011;4517;49.020;12.066;2023-01-09T07:54:21;23.77;;;14.43;;
8964;SDS011;4517;49.020;12.066;2023-01-09T07:56:46;18.40;;;14.20;;
8964;SDS011;4517;49.020;12.066;2023-01-09T07:59:12;18.80;;;13.70;;
8964;SDS011;4517;49.020;12.066;2023-01-09T08:01:38;15.87;;;12.87;;
8964;SDS011;4517;49.020;12.066;2023-01-09T08:04:04;14.87;;;11.97;;
8964;SDS011;4517;49.020;12.066;2023-01-09T08:06:29;15.53;;;11.23;;
8964;SDS011;4517;49.020;12.066;2023-01-09T08:08:55;10.67;;;9.53;;
8964;SDS011;4517;49.020;12.066;2023-01-09T08:11:22;11.83;;;9.80;;
8964;SDS011;4517;49.020;12.066;2023-01-09T08:13:48;12.47;;;10.50;;
8964;SDS011;4517;49.020;12.066;2023-01-09T08:16:14;11.50;;;10.40;;
8964;SDS011;4517;49.020;12.066;2023-01-09T08:18:40;12.13;;;10.90;;
8964;SDS011;4517;49.020;12.066;2023-01-09T08:21:05;9.40;;;8.50;;
8964;SDS011;4517;49.020;12.066;2023-01-09T08:23:31;13.57;;;9.10;;
8964;SDS011;4517;49.020;12.066;2023-01-09T08:25:57;12.80;;;10.57;;
8964;SDS011;4517;49.020;12.066;2023-01-09T08:28:23;10.87;;;9.50;;
8964;SDS011;4517;49.020;12.066;2023-01-09T08:30:49;12.27;;;10.23;;
8964;SDS011;4517;49.020;12.066;2023-01-09T08:33:14;10.13;;;9.23;;
8964;SDS011;4517;49.020;12.066;2023-01-09T08:35:41;8.33;;;7.53;;
8964;SDS011;4517;49.020;12.066;2023-01-09T08:38:08;7.80;;;7.23;;
8964;SDS011;4517;49.020;12.066;2023-01-09T08:40:34;6.80;;;6.30;;
8964;SDS011;4517;49.020;12.066;2023-01-09T08:42:59;5.30;;;5.00;;
8964;SDS011;4517;49.020;12.066;2023-01-09T08:45:44;7.03;;;6.57;;
8964;SDS011;4517;49.020;12.066;2023-01-09T08:48:28;6.47;;;6.00;;
8964;SDS011;4517;49.020;12.066;2023-01-09T08:50:54;6.43;;;5.90;;
8964;SDS011;4517;49.020;12.066;2023-01-09T08:53:19;5.17;;;4.97;;
8964;SDS011;4517;49.020;12.066;2023-01-09T08:55:45;4.73;;;4.43;;
8964;SDS011;4517;49.020;12.066;2023-01-09T08:58:10;5.27;;;5.07;;
8964;SDS011;4517;49.020;12.066;2023-01-09T09:00:36;5.57;;;5.20;;
8964;SDS011;4517;49.020;12.066;2023-01-09T09:03:02;5.70;;;5.37;;
8964;SDS011;4517;49.020;12.066;2023-01-09T09:05:28;6.20;;;5.73;;
8964;SDS011;4517;49.020;12.066;2023-01-09T09:07:55;5.83;;;5.53;;
8964;SDS011;4517;49.020;12.066;2023-01-09T09:10:22;5.67;;;5.30;;
8964;SDS011;4517;49.020;12.066;2023-01-09T09:12:49;5.50;;;5.30;;
8964;SDS011;4517;49.020;12.066;2023-01-09T09:15:16;5.40;;;5.20;;
8964;SDS011;4517;49.020;12.066;2023-01-09T09:17:48;5.20;;;4.90;;
8964;SDS011;4517;49.020;12.066;2023-01-09T09:20:22;7.30;;;7.00;;
8964;SDS011;4517;49.020;12.066;2023-01-09T09:22:52;5.67;;;5.37;;
8964;SDS011;4517;49.020;12.066;2023-01-09T09:25:18;6.30;;;5.80;;
8964;SDS011;4517;49.020;12.066;2023-01-09T09:27:44;7.43;;;5.80;;
8964;SDS011;4517;49.020;12.066;2023-01-09T09:30:11;5.50;;;5.10;;
8964;SDS011;4517;49.020;12.066;2023-01-09T09:32:37;6.00;;;5.70;;
8964;SDS011;4517;49.020;12.066;2023-01-09T09:35:04;6.20;;;5.80;;
8964;SDS011;4517;49.020;12.066;2023-01-09T09:37:31;7.10;;;5.70;;
8964;SDS011;4517;49.020;12.066;2023-01-09T09:39:57;6.40;;;5.77;;
8964;SDS011;4517;49.020;12.066;2023-01-09T09:45:37;5.73;;;5.23;;
8964;SDS011;4517;49.020;12.066;2023-01-09T09:53:50;6.97;;;6.40;;
8964;SDS011;4517;49.020;12.066;2023-01-09T09:56:26;6.40;;;5.90;;
8964;SDS011;4517;49.020;12.066;2023-01-09T09:58:57;6.50;;;6.00;;
8964;SDS011;4517;49.020;12.066;2023-01-09T10:01:30;7.33;;;6.83;;
8964;SDS011;4517;49.020;12.066;2023-01-09T10:04:19;7.00;;;6.60;;
8964;SDS011;4517;49.020;12.066;2023-01-09T10:06:57;5.90;;;5.40;;
8964;SDS011;4517;49.020;12.066;2023-01-09T10:09:28;5.97;;;5.77;;
8964;SDS011;4517;49.020;12.066;2023-01-09T10:14:42;10.67;;;10.27;;
8964;SDS011;4517;49.020;12.066;2023-01-09T10:19:56;5.63;;;5.43;;
8964;SDS011;4517;49.020;12.066;2023-01-09T10:22:32;5.80;;;5.50;;
8964;SDS011;4517;49.020;12.066;2023-01-09T10:25:11;7.80;;;5.90;;
8964;SDS011;4517;49.020;12.066;2023-01-09T10:30:36;7.23;;;6.83;;
8964;SDS011;4517;49.020;12.066;2023-01-09T10:33:47;7.20;;;6.80;;
8964;SDS011;4517;49.020;12.066;2023-01-09T10:39:09;6.03;;;5.53;;
8964;SDS011;4517;49.020;12.066;2023-01-09T10:41:50;5.40;;;5.10;;
8964;SDS011;4517;49.020;12.066;2023-01-09T10:44:40;7.73;;;7.13;;
8964;SDS011;4517;49.020;12.066;2023-01-09T10:47:16;8.80;;;6.33;;
8964;SDS011;4517;49.020;12.066;2023-01-09T10:49:54;6.70;;;6.23;;
8964;SDS011;4517;49.020;12.066;2023-01-09T10:52:24;6.10;;;5.70;;
8964;SDS011;4517;49.020;12.066;2023-01-09T10:57:42;5.60;;;5.10;;
8964;SDS011;4517;49.020;12.066;2023-01-09T11:00:13;6.20;;;5.70;;
8964;SDS011;4517;49.020;12.066;2023-01-09T11:02:47;5.40;;;5.10;;
8964;SDS011;4517;49.020;12.066;2023-01-09T11:05:18;5.67;;;5.30;;
8964;SDS011;4517;49.020;12.066;2023-01-09T11:07:54;6.80;;;6.40;;
8964;SDS011;4517;49.020;12.066;2023-01-09T11:10:49;6.17;;;5.87;;
8964;SDS011;4517;49.020;12.066;2023-01-09T11:13:20;6.23;;;5.73;;
8964;SDS011;4517;49.020;12.066;2023-01-09T11:18:56;6.50;;;6.00;;
8964;SDS011;4517;49.020;12.066;2023-01-09T11:26:43;6.40;;;6.00;;
8964;SDS011;4517;49.020;12.066;2023-01-09T11:31:39;5.57;;;5.27;;
8964;SDS011;4517;49.020;12.066;2023-01-09T11:34:14;6.03;;;5.73;;
8964;SDS011;4517;49.020;12.066;2023-01-09T11:36:41;5.17;;;4.87;;
8964;SDS011;4517;49.020;12.066;2023-01-09T11:39:13;6.43;;;5.80;;
8964;SDS011;4517;49.020;12.066;2023-01-09T11:41:47;6.47;;;6.17;;
8964;SDS011;4517;49.020;12.066;2023-01-09T11:44:18;7.67;;;7.07;;
8964;SDS011;4517;49.020;12.066;2023-01-09T11:46:44;7.10;;;6.80;;
8964;SDS011;4517;49.020;12.066;2023-01-09T11:51:38;5.07;;;4.73;;
8964;SDS011;4517;49.020;12.066;2023-01-09T11:54:06;5.47;;;4.97;;
8964;SDS011;4517;49.020;12.066;2023-01-09T11:56:41;7.00;;;6.70;;
8964;SDS011;4517;49.020;12.066;2023-01-09T11:59:09;6.03;;;5.80;;
8964;SDS011;4517;49.020;12.066;2023-01-09T12:01:44;11.50;;;11.00;;
8964;SDS011;4517;49.020;12.066;2023-01-09T12:07:09;6.03;;;5.83;;
8964;SDS011;4517;49.020;12.066;2023-01-09T12:18:51;7.57;;;7.13;;
8964;SDS011;4517;49.020;12.066;2023-01-09T12:26:42;6.47;;;5.90;;
8964;SDS011;4517;49.020;12.066;2023-01-09T12:32:40;6.00;;;5.70;;
8964;SDS011;4517;49.020;12.066;2023-01-09T12:43:28;6.40;;;6.00;;
8964;SDS011;4517;49.020;12.066;2023-01-09T12:46:18;7.20;;;6.60;;
8964;SDS011;4517;49.020;12.066;2023-01-09T12:49:03;5.27;;;4.97;;
8964;SDS011;4517;49.020;12.066;2023-01-09T12:57:37;7.00;;;5.83;;
8964;SDS011;4517;49.020;12.066;2023-01-09T13:05:29;6.77;;;6.37;;
8964;SDS011;4517;49.020;12.066;2023-01-09T13:08:02;9.03;;;6.10;;
8964;SDS011;4517;49.020;12.066;2023-01-09T13:10:30;6.47;;;5.93;;
8964;SDS011;4517;49.020;12.066;2023-01-09T13:13:11;5.60;;;5.30;;
8964;SDS011;4517;49.020;12.066;2023-01-09T13:15:46;6.20;;;5.80;;
8964;SDS011;4517;49.020;12.066;2023-01-09T13:18:28;7.23;;;6.00;;
8964;SDS011;4517;49.020;12.066;2023-01-09T13:21:05;7.87;;;7.37;;
8964;SDS011;4517;49.020;12.066;2023-01-09T13:28:57;7.63;;;5.47;;
8964;SDS011;4517;49.020;12.066;2023-01-09T13:34:49;6.37;;;5.90;;
8964;SDS011;4517;49.020;12.066;2023-01-09T13:37:19;6.20;;;5.90;;
8964;SDS011;4517;49.020;12.066;2023-01-09T13:42:25;6.47;;;6.00;;
8964;SDS011;4517;49.020;12.066;2023-01-09T13:45:36;6.27;;;5.97;;
8964;SDS011;4517;49.020;12.066;2023-01-09T13:50:35;7.20;;;5.30;;
8964;SDS011;4517;49.020;12.066;2023-01-09T13:56:02;6.53;;;5.70;;
8964;SDS011;4517;49.020;12.066;2023-01-09T13:58:55;7.10;;;6.40;;
8964;SDS011;4517;49.020;12.066;2023-01-09T14:10:04;7.20;;;6.50;;
8964;SDS011;4517;49.020;12.066;2023-01-09T14:12:37;6.90;;;6.30;;
8964;SDS011;4517;49.020;12.066;2023-01-09T14:15:05;6.30;;;5.83;;
8964;SDS011;4517;49.020;12.066;2023-01-09T14:17:44;5.30;;;4.90;;
8964;SDS011;4517;49.020;12.066;2023-01-09T14:20:22;6.43;;;5.73;;
8964;SDS011;4517;49.020;12.066;2023-01-09T14:22:57;12.10;;;5.70;;
8964;SDS011;4517;49.020;12.066;2023-01-09T14:25:25;6.47;;;5.90;;
8964;SDS011;4517;49.020;12.066;2023-01-09T14:35:24;6.63;;;6.20;;
8964;SDS011;4517;49.020;12.066;2023-01-09T14:40:53;6.53;;;5.67;;
8964;SDS011;4517;49.020;12.066;2023-01-09T14:43:37;6.37;;;5.97;;
8964;SDS011;4517;49.020;12.066;2023-01-09T14:46:14;7.00;;;6.40;;
8964;SDS011;4517;49.020;12.066;2023-01-09T14:48:50;6.70;;;6.17;;
8964;SDS011;4517;49.020;12.066;2023-01-09T14:51:22;6.90;;;6.40;;
8964;SDS011;4517;49.020;12.066;2023-01-09T14:53:50;8.60;;;7.80;;
8964;SDS011;4517;49.020;12.066;2023-01-09T14:56:29;8.50;;;6.73;;
8964;SDS011;4517;49.020;12.066;2023-01-09T14:59:02;12.33;;;11.60;;
8964;SDS011;4517;49.020;12.066;2023-01-09T15:01:29;6.80;;;6.30;;
8964;SDS011;4517;49.020;12.066;2023-01-09T15:03:58;11.57;;;6.60;;
8964;SDS011;4517;49.020;12.066;2023-01-09T15:06:27;5.80;;;5.30;;
8964;SDS011;4517;49.020;12.066;2023-01-09T15:11:58;6.80;;;6.13;;
8964;SDS011;4517;49.020;12.066;2023-01-09T15:14:39;6.20;;;5.80;;
8964;SDS011;4517;49.020;12.066;2023-01-09T15:17:20;7.43;;;6.93;;
8964;SDS011;4517;49.020;12.066;2023-01-09T15:19:50;5.87;;;5.37;;
8964;SDS011;4517;49.020;12.066;2023-01-09T15:22:30;6.40;;;5.90;;
8964;SDS011;4517;49.020;12.066;2023-01-09T15:24:58;7.00;;;6.47;;
8964;SDS011;4517;49.020;12.066;2023-01-09T15:27:46;6.00;;;5.53;;
8964;SDS011;4517;49.020;12.066;2023-01-09T15:30:16;9.63;;;6.57;;
8964;SDS011;4517;49.020;12.066;2023-01-09T15:32:52;7.37;;;6.93;;
8964;SDS011;4517;49.020;12.066;2023-01-09T15:35:19;7.17;;;5.80;;
8964;SDS011;4517;49.020;12.066;2023-01-09T15:37:46;6.60;;;6.10;;
8964;SDS011;4517;49.020;12.066;2023-01-09T15:40:19;8.03;;;6.60;;
8964;SDS011;4517;49.020;12.066;2023-01-09T15:42:51;8.47;;;6.50;;
8964;SDS011;4517;49.020;12.066;2023-01-09T15:45:43;8.10;;;7.07;;
8964;SDS011;4517;49.020;12.066;2023-01-09T15:51:03;7.63;;;6.70;;
8964;SDS011;4517;49.020;12.066;2023-01-09T15:53:34;9.67;;;7.20;;
8964;SDS011;4517;49.020;12.066;2023-01-09T15:58:50;8.37;;;7.50;;
8964;SDS011;4517;49.020;12.066;2023-01-09T16:03:52;20.20;;;8.20;;
8964;SDS011;4517;49.020;12.066;2023-01-09T16:06:27;13.40;;;12.30;;
8964;SDS011;4517;49.020;12.066;2023-01-09T16:08:54;7.70;;;6.90;;
8964;SDS011;4517;49.020;12.066;2023-01-09T16:14:11;6.37;;;5.97;;
8964;SDS011;4517;49.020;12.066;2023-01-09T16:16:42;6.93;;;6.37;;
8964;SDS011;4517;49.020;12.066;2023-01-09T16:21:57;10.53;;;6.37;;
8964;SDS011;4517;49.020;12.066;2023-01-09T16:24:25;7.10;;;6.47;;
8964;SDS011;4517;49.020;12.066;2023-01-09T16:29:37;8.50;;;7.70;;
8964;SDS011;4517;49.020;12.066;2023-01-09T16:32:12;7.07;;;6.40;;
8964;SDS011;4517;49.020;12.066;2023-01-09T16:34:42;11.97;;;7.00;;
8964;SDS011;4517;49.020;12.066;2023-01-09T16:37:09;13.60;;;7.63;;
8964;SDS011;4517;49.020;12.066;2023-01-09T16:39:37;9.13;;;6.40;;
8964;SDS011;4517;49.020;12.066;2023-01-09T16:42:06;7.40;;;5.57;;
8964;SDS011;4517;49.020;12.066;2023-01-09T16:44:51;6.90;;;6.20;;
8964;SDS011;4517;49.020;12.066;2023-01-09T16:47:17;10.17;;;7.43;;
8964;SDS011;4517;49.020;12.066;2023-01-09T16:49:43;9.90;;;7.17;;
8964;SDS011;4517;49.020;12.066;2023-01-09T16:52:15;7.70;;;7.07;;
8964;SDS011;4517;49.020;12.066;2023-01-09T16:54:41;6.60;;;6.10;;
8964;SDS011;4517;49.020;12.066;2023-01-09T16:57:12;12.17;;;7.70;;
8964;SDS011;4517;49.020;12.066;2023-01-09T16:59:41;7.57;;;6.73;;
8964;SDS011;4517;49.020;12.066;2023-01-09T17:02:15;8.53;;;7.80;;
8964;SDS011;4517;49.020;12.066;2023-01-09T17:04:42;7.10;;;6.60;;
8964;SDS011;4517;49.020;12.066;2023-01-09T17:07:10;7.33;;;6.60;;
8964;SDS011;4517;49.020;12.066;2023-01-09T17:09:40;8.60;;;6.70;;
8964;SDS011;4517;49.020;12.066;2023-01-09T17:12:17;7.37;;;6.30;;
8964;SDS011;4517;49.020;12.066;2023-01-09T17:14:45;6.73;;;6.10;;
8964;SDS011;4517;49.020;12.066;2023-01-09T17:17:11;6.77;;;6.27;;
8964;SDS011;4517;49.020;12.066;2023-01-09T17:19:37;6.00;;;5.60;;
8964;SDS011;4517;49.020;12.066;2023-01-09T17:22:02;11.50;;;6.50;;
8964;SDS011;4517;49.020;12.066;2023-01-09T17:24:29;7.20;;;6.70;;
8964;SDS011;4517;49.020;12.066;2023-01-09T17:27:13;7.10;;;6.50;;
8964;SDS011;4517;49.020;12.066;2023-01-09T17:29:58;7.47;;;6.70;;
8964;SDS011;4517;49.020;12.066;2023-01-09T17:32:23;8.27;;;7.63;;
8964;SDS011;4517;49.020;12.066;2023-01-09T17:34:49;9.47;;;7.40;;
8964;SDS011;4517;49.020;12.066;2023-01-09T17:37:15;9.43;;;7.80;;